Time;durP1;ratioP1;P1;durP2;ratioP2;P2;SDS_P1;SDS_P2;PMS_P1;PMS_P2;Temp;Humidity;BMP_temperature;BMP_pressure;BME280_temperature;BME280_humidity;BME280_pressure;Samples;Min_cycle;Max_cycle;Signal;HPM_P1;HPM_P2
2023/09/21 00:00:19;;;;;;;8.00;3.40;;;;;;;14.55;97.67;99416.34;109247;1254;58339;-65
2023/09/21 00:03:30;;;;;;;7.20;2.70;;;;;;;14.56;97.59;99414.09;109337;1254;59085;-64
2023/09/21 00:06:17;;;;;;;8.70;3.20;;;;;;;14.57;97.51;99413.42;109415;1253;72858;-65
2023/09/21 00:09:04;;;;;;;7.80;2.50;;;;;;;14.60;97.53;99412.80;109558;1252;66633;-66
2023/09/21 00:11:51;;;;;;;7.20;3.00;;;;;;;14.60;97.87;99411.30;109260;1253;73547;-65
2023/09/21 00:14:37;;;;;;;10.00;2.80;;;;;;;14.62;97.32;99410.02;109406;1254;59468;-63
2023/09/21 00:17:24;;;;;;;9.30;2.90;;;;;;;14.64;97.17;99407.56;109456;1252;60094;-64
2023/09/21 00:20:23;;;;;;;9.30;2.60;;;;;;;14.66;97.19;99407.17;109507;1254;71501;-65
2023/09/21 00:23:11;;;;;;;8.20;2.80;;;;;;;14.68;97.04;99403.30;109573;1253;67724;-64
2023/09/21 00:25:58;;;;;;;7.80;2.80;;;;;;;14.66;97.13;99396.09;109459;1253;72396;-64
2023/09/21 00:28:46;;;;;;;8.20;2.70;;;;;;;14.70;96.88;99396.89;109316;1253;59643;-63
2023/09/21 00:31:33;;;;;;;7.40;2.80;;;;;;;14.71;96.64;99404.48;109316;1257;60217;-68
2023/09/21 00:34:19;;;;;;;9.30;3.20;;;;;;;14.71;96.74;99399.69;109294;1253;71611;-63
2023/09/21 00:37:07;;;;;;;10.00;3.20;;;;;;;14.70;96.98;99393.19;109479;1253;67768;-64
2023/09/21 00:39:53;;;;;;;7.00;2.70;;;;;;;14.68;96.79;99388.73;109199;1254;72834;-64
2023/09/21 00:42:42;;;;;;;7.90;2.50;;;;;;;14.68;96.70;99392.18;109365;1253;57793;-63
2023/09/21 00:45:29;;;;;;;9.40;2.90;;;;;;;14.67;97.05;99389.27;109252;1253;61075;-64
2023/09/21 00:48:21;;;;;;;8.40;3.10;;;;;;;14.65;96.60;99391.57;109399;1253;72931;-64
2023/09/21 00:51:12;;;;;;;7.20;2.70;;;;;;;14.62;96.46;99387.20;109603;1253;66961;-64
2023/09/21 00:54:05;;;;;;;8.60;3.00;;;;;;;14.60;96.93;99385.66;109302;1253;72595;-63
2023/09/21 00:56:52;;;;;;;8.50;3.20;;;;;;;14.59;96.50;99387.36;109499;1252;60429;-65
2023/09/21 00:59:41;;;;;;;7.90;3.10;;;;;;;14.58;96.72;99385.14;109448;1253;60247;-64
2023/09/21 01:02:28;;;;;;;7.20;3.00;;;;;;;14.57;96.68;99382.57;109436;1253;71957;-63
2023/09/21 01:05:15;;;;;;;7.40;2.70;;;;;;;14.55;96.68;99382.18;109388;1253;67040;-64
2023/09/21 01:08:04;;;;;;;6.90;2.70;;;;;;;14.53;96.88;99384.05;109297;1253;71310;-64
2023/09/21 01:10:51;;;;;;;8.20;2.90;;;;;;;14.46;96.68;99376.01;109369;1253;57645;-64
2023/09/21 01:13:41;;;;;;;9.90;3.00;;;;;;;14.46;96.98;99374.73;109263;1253;60008;-64
2023/09/21 01:16:27;;;;;;;9.90;3.20;;;;;;;14.44;96.93;99374.42;109465;1253;73130;-64
2023/09/21 01:19:14;;;;;;;9.10;3.50;;;;;;;14.43;97.06;99370.08;109329;1253;66333;-63
2023/09/21 01:22:13;;;;;;;7.90;3.10;;;;;;;14.43;96.94;99376.15;109372;1253;71308;-65
2023/09/21 01:25:00;;;;;;;7.80;2.90;;;;;;;14.43;97.06;99376.55;109409;1252;59476;-64
2023/09/21 01:27:50;;;;;;;7.70;2.90;;;;;;;14.44;97.02;99374.98;109321;1252;61314;-66
2023/09/21 01:30:41;;;;;;;10.10;3.30;;;;;;;14.45;96.85;99371.29;109255;1253;72945;-64
2023/09/21 01:33:27;;;;;;;8.90;3.60;;;;;;;14.46;96.91;99366.40;109572;1252;67662;-64
2023/09/21 01:36:16;;;;;;;8.60;3.20;;;;;;;14.47;97.07;99370.77;109268;1252;72722;-63
2023/09/21 01:39:09;;;;;;;8.80;2.90;;;;;;;14.47;96.64;99363.73;109531;1252;57708;-65
2023/09/21 01:41:55;;;;;;;9.90;2.90;;;;;;;14.48;96.53;99367.44;109442;1253;58868;-66
2023/09/21 01:44:41;;;;;;;8.90;3.30;;;;;;;14.48;96.48;99367.11;109301;1252;72948;-66
2023/09/21 01:47:28;;;;;;;9.40;3.30;;;;;;;14.48;96.34;99359.60;109494;1253;68295;-67
2023/09/21 01:50:17;;;;;;;9.20;3.20;;;;;;;14.47;96.43;99364.42;109390;1252;70564;-65
2023/09/21 01:53:06;;;;;;;8.70;3.00;;;;;;;14.47;96.37;99360.14;109419;1253;59346;-67
2023/09/21 01:55:52;;;;;;;9.30;3.30;;;;;;;14.47;96.07;99358.05;109662;1252;60392;-65
2023/09/21 01:58:39;;;;;;;8.60;2.80;;;;;;;14.46;96.12;99359.75;109410;1253;71729;-64
2023/09/21 02:01:26;;;;;;;8.30;3.10;;;;;;;14.45;96.16;99362.88;109532;1253;66380;-64
2023/09/21 02:04:12;;;;;;;7.30;2.70;;;;;;;14.43;96.04;99358.29;109502;1253;71067;-63
2023/09/21 02:07:03;;;;;;;9.00;3.00;;;;;;;14.43;95.85;99355.15;109423;1253;58654;-65
2023/09/21 02:09:53;;;;;;;8.80;2.90;;;;;;;14.42;95.79;99354.55;109551;1252;60078;-65
2023/09/21 02:12:41;;;;;;;7.40;2.70;;;;;;;14.40;95.81;99347.57;109435;1253;72439;-66
2023/09/21 02:15:28;;;;;;;9.40;3.10;;;;;;;14.38;95.98;99345.25;109308;1252;67643;-64
2023/09/21 02:18:15;;;;;;;9.20;3.10;;;;;;;14.35;95.94;99341.73;109393;1253;72517;-65
2023/09/21 02:21:01;;;;;;;10.20;3.00;;;;;;;14.30;96.04;99341.30;109408;1253;58178;-65
2023/09/21 02:23:49;;;;;;;9.20;3.20;;;;;;;14.25;96.45;99341.23;109175;1254;61224;-66
2023/09/21 02:26:37;;;;;;;8.90;3.20;;;;;;;14.22;96.18;99333.18;109536;1252;73786;-65
2023/09/21 02:29:23;;;;;;;8.70;3.60;;;;;;;14.20;96.49;99333.24;109254;1252;67809;-63
2023/09/21 02:32:10;;;;;;;8.60;3.10;;;;;;;14.18;96.37;99335.06;109292;1252;72361;-64
2023/09/21 02:34:59;;;;;;;7.70;3.10;;;;;;;14.17;96.11;99334.43;109376;1253;57991;-63
2023/09/21 02:37:46;;;;;;;10.20;3.20;;;;;;;14.16;96.46;99334.23;109263;1253;61235;-62
2023/09/21 02:40:33;;;;;;;7.80;3.10;;;;;;;14.15;96.28;99326.66;109309;1252;72889;-64
2023/09/21 02:43:19;;;;;;;8.80;3.50;;;;;;;14.12;96.43;99324.20;109283;1253;67697;-63
2023/09/21 02:46:06;;;;;;;9.00;2.80;;;;;;;14.11;96.38;99324.52;109412;1253;72498;-63
2023/09/21 02:48:52;;;;;;;8.80;3.10;;;;;;;14.11;96.31;99320.28;109519;1252;57338;-63
2023/09/21 02:51:40;;;;;;;7.90;3.10;;;;;;;14.09;96.45;99321.89;109551;1252;59325;-63
2023/09/21 02:54:27;;;;;;;8.20;3.00;;;;;;;14.07;96.25;99319.26;109445;1252;71493;-64
2023/09/21 02:57:14;;;;;;;8.20;3.10;;;;;;;14.04;96.49;99322.56;109425;1253;67920;-63
2023/09/21 03:00:08;;;;;;;7.70;2.70;;;;;;;14.02;96.44;99323.56;109277;1253;73633;-62
2023/09/21 03:03:00;;;;;;;10.00;3.20;;;;;;;13.99;96.17;99329.69;109400;1255;59307;-63
2023/09/21 03:05:49;;;;;;;8.30;3.00;;;;;;;13.97;96.24;99326.67;109380;1253;61395;-62
2023/09/21 03:08:38;;;;;;;9.00;3.20;;;;;;;13.95;96.47;99326.38;109234;1252;74120;-63
2023/09/21 03:11:25;;;;;;;9.10;3.30;;;;;;;13.92;96.30;99330.63;109361;1252;68665;-64
2023/09/21 03:14:11;;;;;;;8.70;3.50;;;;;;;13.89;96.30;99331.79;109288;1252;73514;-65
2023/09/21 03:17:01;;;;;;;9.60;3.00;;;;;;;13.88;96.18;99330.66;109275;1253;58416;-63
2023/09/21 03:19:49;;;;;;;10.10;3.40;;;;;;;13.87;96.28;99327.55;109541;1252;60581;-65
2023/09/21 03:22:37;;;;;;;8.30;3.10;;;;;;;13.87;96.32;99325.62;109429;1252;73098;-65
2023/09/21 03:25:31;;;;;;;8.70;3.30;;;;;;;13.85;96.29;99326.52;109560;1252;68623;-65
2023/09/21 03:28:22;;;;;;;8.40;3.10;;;;;;;13.82;96.18;99326.49;109435;1253;71880;-64
2023/09/21 03:31:09;;;;;;;7.50;3.30;;;;;;;13.79;96.09;99324.84;109383;1253;57382;-65
2023/09/21 03:33:55;;;;;;;9.50;3.50;;;;;;;13.76;96.25;99320.65;109306;1252;59196;-64
2023/09/21 03:36:42;;;;;;;10.60;3.50;;;;;;;13.73;96.10;99317.61;109417;1253;72804;-64
2023/09/21 03:39:28;;;;;;;7.50;3.30;;;;;;;13.70;96.14;99315.95;109525;1252;66535;-65
2023/09/21 03:42:15;;;;;;;9.90;3.10;;;;;;;13.68;96.56;99311.16;109272;1253;72419;-65
2023/09/21 03:45:02;;;;;;;8.90;3.00;;;;;;;13.67;96.63;99305.88;109237;1252;58126;-64
2023/09/21 03:47:49;;;;;;;8.60;2.90;;;;;;;13.67;96.53;99304.48;109552;1252;60130;-64
2023/09/21 03:50:41;;;;;;;9.20;3.40;;;;;;;13.68;96.24;99305.61;109427;1252;71819;-66
2023/09/21 03:53:33;;;;;;;9.60;3.20;;;;;;;13.70;96.28;99307.77;109310;1253;67101;-64
2023/09/21 03:56:19;;;;;;;9.00;2.80;;;;;;;13.71;96.26;99301.73;109449;1252;72462;-65
2023/09/21 03:59:07;;;;;;;8.80;3.00;;;;;;;13.72;96.03;99302.84;109396;1253;57868;-63
2023/09/21 04:01:54;;;;;;;10.10;3.10;;;;;;;13.73;96.06;99305.24;109499;1252;60793;-64
2023/09/21 04:04:44;;;;;;;7.90;2.90;;;;;;;13.76;95.63;99305.54;109230;1256;72852;-65
2023/09/21 04:07:31;;;;;;;8.30;3.60;;;;;;;13.77;95.36;99301.77;109242;1253;66388;-65
2023/09/21 04:10:18;;;;;;;9.70;3.40;;;;;;;13.79;95.26;99294.65;109206;1253;73506;-65
2023/09/21 04:13:05;;;;;;;8.10;2.90;;;;;;;13.82;95.07;99296.01;109234;1253;59458;-64
2023/09/21 04:15:51;;;;;;;10.30;3.30;;;;;;;13.84;94.99;99288.80;109269;1253;58912;-64
2023/09/21 04:18:38;;;;;;;9.90;3.30;;;;;;;13.85;94.83;99285.85;109554;1252;71987;-65
2023/09/21 04:21:25;;;;;;;12.00;3.30;;;;;;;13.86;94.46;99282.58;109266;1253;66332;-66
2023/09/21 04:24:14;;;;;;;9.90;3.10;;;;;;;13.86;94.39;99282.21;109464;1252;73542;-65
2023/09/21 04:27:00;;;;;;;9.00;3.50;;;;;;;13.85;94.17;99279.83;109418;1253;57778;-62
2023/09/21 04:29:48;;;;;;;8.80;3.40;;;;;;;13.82;94.28;99285.59;109439;1252;61219;-68
2023/09/21 04:32:38;;;;;;;8.90;3.30;;;;;;;13.82;94.10;99284.20;109293;1253;72691;-67
2023/09/21 04:35:25;;;;;;;8.50;3.60;;;;;;;13.83;93.93;99282.88;109416;1253;67878;-68
2023/09/21 04:38:12;;;;;;;9.70;3.40;;;;;;;13.85;93.85;99279.25;109172;1252;243037;-67
2023/09/21 04:40:59;;;;;;;9.00;3.40;;;;;;;13.88;93.37;99280.23;109354;1254;58122;-68
2023/09/21 04:43:45;;;;;;;11.10;3.80;;;;;;;13.91;93.31;99285.75;109291;1254;59420;-68
2023/09/21 04:46:33;;;;;;;9.70;2.90;;;;;;;13.94;92.99;99285.84;109170;1254;72162;-70
2023/09/21 04:49:19;;;;;;;11.20;4.20;;;;;;;13.97;92.71;99281.58;109210;1253;67600;-67
2023/09/21 04:52:06;;;;;;;10.60;4.00;;;;;;;14.02;92.84;99285.70;109237;1254;72705;-69
2023/09/21 04:54:54;;;;;;;9.30;3.50;;;;;;;14.06;92.74;99284.52;109355;1254;57425;-67
2023/09/21 04:57:40;;;;;;;9.50;4.00;;;;;;;14.10;92.24;99281.98;109271;1254;61178;-67
2023/09/21 05:00:27;;;;;;;10.90;4.00;;;;;;;14.13;92.20;99281.20;109285;1254;72707;-68
2023/09/21 05:03:13;;;;;;;10.40;3.70;;;;;;;14.16;92.06;99279.23;109383;1254;67752;-67
2023/09/21 05:05:59;;;;;;;12.60;4.00;;;;;;;14.20;91.87;99282.80;109247;1252;71274;-68
2023/09/21 05:08:46;;;;;;;11.20;4.10;;;;;;;14.20;91.46;99281.86;109259;1253;59639;-69
2023/09/21 05:11:38;;;;;;;12.20;4.10;;;;;;;14.22;91.61;99270.94;109532;1252;60364;-68
2023/09/21 05:14:25;;;;;;;12.20;4.70;;;;;;;14.25;91.51;99268.64;109382;1252;73871;-68
2023/09/21 05:17:12;;;;;;;11.70;4.20;;;;;;;14.28;91.43;99267.08;109494;1252;65626;-68
2023/09/21 05:19:58;;;;;;;13.40;6.20;;;;;;;14.28;91.44;99267.90;109262;1253;72734;-68
2023/09/21 05:22:44;;;;;;;12.80;5.40;;;;;;;14.33;91.31;99268.05;109360;1253;60535;-67
2023/09/21 05:25:31;;;;;;;10.60;4.40;;;;;;;14.36;91.13;99265.20;109448;1253;61086;-70
2023/09/21 05:28:19;;;;;;;11.00;4.20;;;;;;;14.41;90.87;99263.40;109561;1252;71999;-70
2023/09/21 05:31:10;;;;;;;10.00;4.60;;;;;;;14.46;90.58;99262.20;109375;1252;66432;-69
2023/09/21 05:33:57;;;;;;;11.90;4.10;;;;;;;14.52;90.37;99265.46;109472;1252;73973;-68
2023/09/21 05:36:50;;;;;;;10.80;4.50;;;;;;;14.57;90.25;99266.84;109273;1252;57428;-68
2023/09/21 05:39:38;;;;;;;12.70;4.70;;;;;;;14.66;89.81;99275.45;109531;1252;60036;-67
2023/09/21 05:42:25;;;;;;;10.70;4.20;;;;;;;14.74;89.56;99271.71;109511;1252;73830;-67
2023/09/21 05:45:11;;;;;;;11.40;4.80;;;;;;;14.83;89.43;99273.64;109341;1253;66425;-68
2023/09/21 05:47:57;;;;;;;11.10;4.80;;;;;;;14.93;88.48;99266.10;109431;1252;72569;-66
2023/09/21 05:50:45;;;;;;;13.80;4.70;;;;;;;15.06;88.14;99270.59;109527;1252;59438;-70
2023/09/21 05:53:32;;;;;;;13.10;4.90;;;;;;;15.17;87.77;99272.42;109375;1253;60177;-67
2023/09/21 05:56:19;;;;;;;10.70;5.00;;;;;;;15.27;87.19;99273.33;109535;1252;72716;-64
2023/09/21 05:59:06;;;;;;;12.70;5.40;;;;;;;15.38;86.52;99279.05;109523;1252;66874;-66
2023/09/21 06:01:53;;;;;;;11.10;5.40;;;;;;;15.45;86.00;99278.99;109515;1252;72505;-64
2023/09/21 06:04:41;;;;;;;11.90;4.70;;;;;;;15.52;85.87;99276.67;109426;1253;57961;-64
2023/09/21 06:07:31;;;;;;;13.60;5.60;;;;;;;15.60;85.38;99279.64;109539;1252;58869;-64
2023/09/21 06:10:18;;;;;;;12.00;4.10;;;;;;;15.69;85.18;99278.08;109392;1253;73838;-64
2023/09/21 06:13:07;;;;;;;17.00;5.10;;;;;;;15.79;85.05;99279.34;109540;1252;66809;-65
2023/09/21 06:15:54;;;;;;;10.70;5.00;;;;;;;15.89;84.52;99275.60;109472;1252;73578;-64
2023/09/21 06:18:41;;;;;;;10.60;4.70;;;;;;;16.00;84.10;99273.26;109473;1252;57980;-66
2023/09/21 06:21:30;;;;;;;11.80;4.60;;;;;;;16.11;83.84;99274.71;109393;1253;60153;-65
2023/09/21 06:24:18;;;;;;;12.30;5.20;;;;;;;16.23;83.53;99272.82;109459;1252;73858;-62
2023/09/21 06:27:04;;;;;;;12.90;5.70;;;;;;;16.39;83.06;99266.89;109415;1252;66758;-63
2023/09/21 06:29:50;;;;;;;12.10;5.10;;;;;;;16.59;82.44;99265.25;109332;1252;72479;-65
2023/09/21 06:32:37;;;;;;;12.60;5.00;;;;;;;16.95;81.09;99255.95;109462;1252;57698;-64
2023/09/21 06:35:24;;;;;;;12.60;4.30;;;;;;;17.62;78.69;99256.27;109496;1252;58703;-63
2023/09/21 06:38:10;;;;;;;12.20;4.60;;;;;;;18.17;76.04;99259.36;109494;1252;71480;-62
2023/09/21 06:40:58;;;;;;;11.00;4.60;;;;;;;18.29;75.40;99258.60;109450;1252;68880;-66
2023/09/21 06:43:45;;;;;;;11.50;4.80;;;;;;;18.52;73.96;99259.05;109469;1252;71286;-64
2023/09/21 06:46:32;;;;;;;10.30;4.10;;;;;;;19.18;72.04;99255.33;109537;1252;57923;-64
2023/09/21 06:49:21;;;;;;;10.70;4.50;;;;;;;20.77;68.82;99239.48;109328;1253;60253;-64
2023/09/21 06:52:07;;;;;;;11.00;4.20;;;;;;;22.49;59.69;99246.13;109295;1253;73064;-64
2023/09/21 06:54:54;;;;;;;8.90;3.90;;;;;;;23.95;56.50;99246.20;109517;1252;67699;-65
2023/09/21 06:57:41;;;;;;;9.50;4.00;;;;;;;25.27;51.45;99239.38;109504;1252;72236;-63
2023/09/21 07:00:27;;;;;;;11.80;3.70;;;;;;;26.34;48.08;99246.09;109182;1253;57744;-64
2023/09/21 07:03:15;;;;;;;11.80;3.90;;;;;;;27.21;45.03;99247.23;109502;1252;60571;-65
2023/09/21 07:06:02;;;;;;;9.40;3.60;;;;;;;27.97;43.02;99250.05;109554;1253;73387;-64
2023/09/21 07:08:50;;;;;;;8.50;3.10;;;;;;;28.42;40.60;99246.81;109575;1252;68860;-63
2023/09/21 07:11:37;;;;;;;9.00;3.30;;;;;;;29.03;39.90;99257.17;109495;1253;72593;-65
2023/09/21 07:14:24;;;;;;;7.90;2.60;;;;;;;29.41;38.63;99253.39;109447;1252;57395;-62
2023/09/21 07:17:10;;;;;;;10.40;3.00;;;;;;;29.51;38.06;99254.50;109545;1252;58722;-63
2023/09/21 07:19:56;;;;;;;8.50;3.70;;;;;;;29.84;37.36;99252.02;109466;1253;73238;-63
2023/09/21 07:22:43;;;;;;;10.00;2.90;;;;;;;29.53;36.93;99250.77;109468;1253;66653;-64
2023/09/21 07:25:29;;;;;;;8.60;3.10;;;;;;;29.33;37.16;99250.38;109483;1252;73742;-64
2023/09/21 07:28:16;;;;;;;8.30;2.60;;;;;;;29.14;37.31;99255.86;109504;1252;57379;-66
2023/09/21 07:31:03;;;;;;;8.10;3.00;;;;;;;29.23;37.63;99251.71;109595;1253;60031;-63
2023/09/21 07:33:52;;;;;;;9.60;2.90;;;;;;;29.55;36.89;99244.59;109282;1254;73368;-63
2023/09/21 07:36:39;;;;;;;10.30;2.40;;;;;;;29.81;36.56;99244.27;109275;1254;68203;-64
2023/09/21 07:39:25;;;;;;;9.10;2.40;;;;;;;30.28;36.40;99239.86;109404;1254;73254;-65
2023/09/21 07:42:11;;;;;;;7.20;2.40;;;;;;;30.55;35.44;99238.30;109254;1254;57441;-66
2023/09/21 07:44:58;;;;;;;7.40;2.50;;;;;;;30.47;35.01;99236.53;109415;1254;60741;-64
2023/09/21 07:47:45;;;;;;;8.50;2.60;;;;;;;30.79;35.08;99232.09;109498;1252;72924;-63
2023/09/21 07:50:34;;;;;;;8.10;2.70;;;;;;;31.27;34.47;99228.98;109555;1253;68341;-63
2023/09/21 07:53:20;;;;;;;6.80;2.10;;;;;;;31.06;33.70;99231.62;109506;1253;72740;-62
2023/09/21 07:56:12;;;;;;;7.70;2.20;;;;;;;31.02;34.25;99218.43;109519;1252;57301;-64
2023/09/21 07:58:58;;;;;;;10.20;2.50;;;;;;;31.57;33.97;99216.34;109566;1252;58753;-65
2023/09/21 08:01:46;;;;;;;6.50;2.10;;;;;;;31.75;32.87;99213.40;109466;1252;72905;-63
2023/09/21 08:04:32;;;;;;;7.90;2.10;;;;;;;31.92;32.80;99214.52;109435;1252;66356;-65
2023/09/21 08:07:23;;;;;;;7.30;2.50;;;;;;;31.96;32.55;99213.03;109454;1254;71631;-64
2023/09/21 08:10:10;;;;;;;8.80;2.30;;;;;;;32.24;32.25;99207.89;109530;1253;57987;-64
2023/09/21 08:12:57;;;;;;;9.90;2.30;;;;;;;32.54;31.90;99208.17;109541;1254;60076;-64
2023/09/21 08:15:43;;;;;;;8.20;2.10;;;;;;;32.36;31.70;99207.95;109458;1253;71610;-64
2023/09/21 08:18:29;;;;;;;7.30;2.10;;;;;;;32.52;31.61;99202.63;109546;1253;67864;-63
2023/09/21 08:21:16;;;;;;;7.90;2.40;;;;;;;32.58;31.24;99201.75;109281;1253;71618;-64
2023/09/21 08:24:04;;;;;;;7.20;1.90;;;;;;;32.63;31.42;99204.20;109266;1253;57363;-64
2023/09/21 08:26:50;;;;;;;11.30;2.30;;;;;;;32.97;30.92;99199.38;109499;1252;61049;-65
2023/09/21 08:29:37;;;;;;;6.40;2.00;;;;;;;33.53;30.73;99194.10;109474;1252;74377;-62
2023/09/21 08:32:23;;;;;;;7.00;2.00;;;;;;;33.83;29.94;99188.71;109349;1252;66289;-64
2023/09/21 08:35:11;;;;;;;6.80;2.30;;;;;;;34.01;29.26;99197.63;109465;1253;73013;-63
2023/09/21 08:37:58;;;;;;;7.00;2.30;;;;;;;33.52;29.64;99197.15;109451;1253;58977;-62
2023/09/21 08:40:52;;;;;;;7.60;2.00;;;;;;;33.33;30.01;99195.05;109353;1252;60156;-63
2023/09/21 08:43:38;;;;;;;8.40;2.30;;;;;;;33.28;30.27;99194.96;109313;1253;73797;-63
2023/09/21 08:46:26;;;;;;;8.30;2.20;;;;;;;33.22;30.36;99192.70;109489;1253;68699;-65
2023/09/21 08:49:21;;;;;;;8.50;2.00;;;;;;;33.16;30.41;99189.12;109481;1252;71927;-62
2023/09/21 08:52:09;;;;;;;6.60;1.90;;;;;;;33.41;30.22;99179.05;109528;1252;58868;-64
2023/09/21 08:54:56;;;;;;;7.60;2.20;;;;;;;33.55;29.57;99184.33;109585;1253;58820;-66
2023/09/21 08:57:42;;;;;;;7.40;2.20;;;;;;;33.72;29.56;99185.52;109279;1253;73132;-64
2023/09/21 09:00:29;;;;;;;7.30;2.00;;;;;;;33.64;29.13;99188.20;109553;1253;66430;-63
2023/09/21 09:03:19;;;;;;;8.10;2.10;;;;;;;33.54;29.66;99180.41;109534;1252;72942;-64
2023/09/21 09:06:05;;;;;;;7.90;1.90;;;;;;;33.79;29.17;99180.52;109467;1252;58302;-63
2023/09/21 09:08:52;;;;;;;9.10;1.80;;;;;;;33.45;29.43;99176.11;109566;1253;58969;-66
2023/09/21 09:11:44;;;;;;;7.50;1.90;;;;;;;33.40;29.21;99175.17;109469;1252;72878;-64
2023/09/21 09:14:31;;;;;;;8.20;2.10;;;;;;;33.30;29.37;99176.66;109430;1254;67829;-64
2023/09/21 09:17:18;;;;;;;7.60;2.00;;;;;;;33.22;29.69;99177.61;109472;1254;72920;-62
2023/09/21 09:20:05;;;;;;;7.60;1.80;;;;;;;33.51;30.03;99161.31;109523;1252;57875;-64
2023/09/21 09:22:52;;;;;;;6.60;2.10;;;;;;;34.00;29.51;99160.95;109561;1253;58966;-63
2023/09/21 09:25:40;;;;;;;8.00;2.10;;;;;;;34.17;29.23;99156.96;109377;1252;73209;-63
2023/09/21 09:28:26;;;;;;;9.90;2.30;;;;;;;34.60;28.86;99151.69;109450;1253;68865;-67
2023/09/21 09:31:12;;;;;;;6.80;2.30;;;;;;;34.97;28.23;99147.89;109489;1252;71812;-63
2023/09/21 09:34:01;;;;;;;8.30;2.30;;;;;;;35.11;27.84;99141.27;109280;1253;57959;-62
2023/09/21 09:36:51;;;;;;;7.60;2.30;;;;;;;34.71;28.10;99145.72;109475;1253;59023;-64
2023/09/21 09:39:38;;;;;;;8.20;2.20;;;;;;;34.45;28.44;99141.83;109288;1253;72756;-63
2023/09/21 09:42:25;;;;;;;8.80;2.00;;;;;;;34.36;28.41;99139.48;109528;1252;67887;-65
2023/09/21 09:45:25;;;;;;;6.60;1.90;;;;;;;34.38;28.45;99134.87;109504;1253;72439;-64
2023/09/21 09:48:11;;;;;;;8.00;1.90;;;;;;;34.97;28.24;99132.36;109261;1252;57389;-63
2023/09/21 09:51:06;;;;;;;7.60;2.00;;;;;;;34.95;27.83;99130.84;109483;1252;58205;-65
2023/09/21 09:53:53;;;;;;;6.60;1.70;;;;;;;35.08;27.58;99130.70;109391;1252;73031;-64
2023/09/21 09:56:41;;;;;;;6.70;2.00;;;;;;;35.68;27.12;99129.95;109309;1252;66435;-64
2023/09/21 09:59:29;;;;;;;6.30;1.70;;;;;;;35.90;26.78;99133.86;109506;1253;73423;-64
2023/09/21 10:02:17;;;;;;;6.70;1.80;;;;;;;36.16;26.35;99131.89;109522;1252;57602;-64
2023/09/21 10:05:04;;;;;;;7.90;1.80;;;;;;;35.98;26.10;99128.94;109512;1253;60073;-64
2023/09/21 10:07:53;;;;;;;7.30;1.70;;;;;;;35.95;26.17;99125.56;109264;1252;72998;-63
2023/09/21 10:10:52;;;;;;;8.60;1.60;;;;;;;36.09;26.25;99126.52;109342;1253;66325;-63
2023/09/21 10:13:54;;;;;;;8.40;1.80;;;;;;;36.06;26.12;99120.44;109142;1252;73529;-64
2023/09/21 10:16:49;;;;;;;6.60;1.70;;;;;;;35.94;26.43;99115.39;109409;1253;57281;-63
2023/09/21 10:19:38;;;;;;;7.20;1.90;;;;;;;35.83;26.28;99116.08;109495;1252;60587;-64
2023/09/21 10:22:28;;;;;;;6.70;1.60;;;;;;;35.99;26.14;99114.85;109295;1253;72744;-65
2023/09/21 10:25:18;;;;;;;6.80;1.80;;;;;;;35.73;26.60;99106.44;109547;1253;66937;-62
2023/09/21 10:28:29;;;;;;;7.00;1.80;;;;;;;36.15;26.27;99105.83;109338;1253;71475;-62
2023/09/21 10:31:26;;;;;;;8.80;1.80;;;;;;;36.23;26.08;99102.89;109488;1253;57416;-64
2023/09/21 10:34:24;;;;;;;7.30;1.90;;;;;;;36.41;26.06;99094.50;109292;1253;60180;-65
2023/09/21 10:37:10;;;;;;;7.40;1.90;;;;;;;36.85;25.58;99096.37;109485;1253;72866;-62
2023/09/21 10:39:58;;;;;;;7.80;1.90;;;;;;;37.12;25.30;99091.34;109285;1252;69329;-63
2023/09/21 10:42:44;;;;;;;7.60;2.00;;;;;;;36.81;25.12;99090.60;109279;1253;72511;-64
2023/09/21 10:45:58;;;;;;;6.40;1.90;;;;;;;36.89;25.42;99086.09;109217;1253;58707;-64
2023/09/21 10:49:13;;;;;;;7.70;1.90;;;;;;;36.85;25.41;99081.56;109370;1253;59073;-64
2023/09/21 10:52:02;;;;;;;6.30;1.70;;;;;;;36.60;25.75;99083.99;109251;1253;71619;-65
2023/09/21 10:54:49;;;;;;;8.40;1.80;;;;;;;36.12;26.00;99072.81;109332;1254;67760;-65
2023/09/21 10:57:35;;;;;;;7.30;1.90;;;;;;;35.93;26.59;99068.37;109375;1252;72671;-65
2023/09/21 11:00:21;;;;;;;7.60;1.60;;;;;;;35.36;26.94;99061.57;109311;1253;57333;-64
2023/09/21 11:03:10;;;;;;;6.70;1.60;;;;;;;35.24;27.23;99058.15;109483;1252;61215;-62
2023/09/21 11:05:57;;;;;;;7.30;2.00;;;;;;;34.63;27.55;99059.29;109343;1253;74069;-63
2023/09/21 11:08:47;;;;;;;7.60;1.90;;;;;;;33.76;28.76;99053.73;109296;1253;67587;-64
2023/09/21 11:11:34;;;;;;;7.00;1.60;;;;;;;33.76;29.11;99046.39;109476;1252;73561;-64
2023/09/21 11:14:22;;;;;;;7.70;2.00;;;;;;;33.66;29.26;99045.41;109492;1252;57685;-64
2023/09/21 11:17:11;;;;;;;8.40;2.10;;;;;;;33.58;29.46;99050.95;109501;1253;60393;-62
2023/09/21 11:20:02;;;;;;;6.90;2.30;;;;;;;33.35;29.73;99043.02;109361;1253;73848;-64
2023/09/21 11:22:50;;;;;;;11.10;2.20;;;;;;;33.23;29.80;99041.77;109253;1254;69269;-65
2023/09/21 11:25:37;;;;;;;8.60;1.90;;;;;;;32.81;30.53;99029.36;109502;1253;72636;-63
2023/09/21 11:28:24;;;;;;;6.80;1.80;;;;;;;32.91;30.72;99024.89;109297;1253;57435;-63
2023/09/21 11:31:15;;;;;;;7.30;2.10;;;;;;;32.88;30.72;99025.80;109319;1253;59387;-64
2023/09/21 11:34:07;;;;;;;8.90;2.30;;;;;;;32.78;31.09;99023.65;109373;1253;73896;-65
2023/09/21 11:36:53;;;;;;;8.00;1.90;;;;;;;32.82;31.10;99023.60;109325;1258;68188;-65
2023/09/21 11:39:46;;;;;;;8.00;2.00;;;;;;;32.68;31.32;99021.97;109536;1254;71687;-63
2023/09/21 11:42:33;;;;;;;8.10;2.10;;;;;;;32.37;31.58;99021.38;109379;1253;58761;-64
2023/09/21 11:45:20;;;;;;;9.00;1.90;;;;;;;31.83;32.11;99025.08;109560;1254;58921;-64
2023/09/21 11:48:07;;;;;;;12.30;2.30;;;;;;;31.59;32.35;99025.86;109281;1257;72728;-62
2023/09/21 11:50:55;;;;;;;7.60;2.20;;;;;;;31.42;33.19;99019.69;109296;1253;69110;-63
2023/09/21 11:53:41;;;;;;;6.90;2.00;;;;;;;31.00;33.71;99021.91;109458;1252;71293;-64
2023/09/21 11:56:27;;;;;;;7.60;1.90;;;;;;;30.47;34.60;99007.02;109531;1253;57967;-65
2023/09/21 11:59:15;;;;;;;6.20;2.00;;;;;;;30.15;35.11;99016.10;109501;1253;58902;-63
2023/09/21 12:02:03;;;;;;;7.30;2.10;;;;;;;30.08;35.31;99010.22;109517;1253;73782;-65
2023/09/21 12:04:49;;;;;;;9.70;2.40;;;;;;;29.86;35.67;99013.57;109531;1254;68701;-65
2023/09/21 12:07:35;;;;;;;8.10;2.40;;;;;;;29.56;36.13;98999.64;109260;1252;73534;-66
2023/09/21 12:10:22;;;;;;;7.80;2.60;;;;;;;29.63;36.23;98992.42;109394;1254;57491;-66
2023/09/21 12:13:11;;;;;;;7.60;1.80;;;;;;;29.42;36.42;98994.14;109426;1253;60244;-67
2023/09/21 12:15:58;;;;;;;11.20;2.40;;;;;;;28.93;37.34;98989.48;109518;1252;73793;-70
2023/09/21 12:18:46;;;;;;;9.30;2.20;;;;;;;28.43;38.55;98987.03;109481;1256;67711;-69
2023/09/21 12:21:33;;;;;;;8.60;2.10;;;;;;;28.11;39.36;98988.70;109395;1252;72508;-68
2023/09/21 12:24:21;;;;;;;8.30;2.20;;;;;;;27.66;40.56;98986.20;109578;1256;57721;-65
2023/09/21 12:27:07;;;;;;;8.90;2.20;;;;;;;27.45;41.37;98984.40;109440;1253;60172;-68
2023/09/21 12:29:54;;;;;;;7.80;2.20;;;;;;;27.22;41.70;98991.15;109543;1254;73063;-66
2023/09/21 12:32:41;;;;;;;7.60;2.40;;;;;;;26.94;42.27;98982.84;109535;1254;66484;-66
2023/09/21 12:35:30;;;;;;;7.90;2.20;;;;;;;26.69;42.70;98986.57;109361;1252;71457;-69
2023/09/21 12:38:16;;;;;;;7.10;2.40;;;;;;;26.56;43.30;98981.86;109417;1253;57405;-68
2023/09/21 12:41:03;;;;;;;7.00;2.30;;;;;;;26.42;43.36;98984.81;109484;1253;59266;-67
2023/09/21 12:43:49;;;;;;;10.10;2.40;;;;;;;26.30;43.76;98978.80;109489;1253;72904;-66
2023/09/21 12:46:39;;;;;;;9.10;2.70;;;;;;;26.31;44.15;98975.05;109531;1252;66691;-68
2023/09/21 12:49:26;;;;;;;7.20;2.60;;;;;;;26.35;44.11;98965.08;109320;1253;71811;-66
2023/09/21 12:52:14;;;;;;;8.10;2.40;;;;;;;26.43;44.32;98969.44;109493;1253;57843;-66
2023/09/21 12:55:00;;;;;;;6.00;2.10;;;;;;;26.38;43.74;98965.73;109459;1253;60213;-66
2023/09/21 12:57:47;;;;;;;7.50;2.60;;;;;;;26.30;44.24;98964.19;109328;1253;73914;-67
2023/09/21 13:00:33;;;;;;;7.00;2.30;;;;;;;26.27;44.43;98961.04;109307;1253;67735;-66